createdAt,value
2017-04-25T17:37:11.982Z,999.04
2017-04-25T17:38:14.029Z,999.05
2017-04-25T17:39:09.643Z,999.06
2017-04-25T17:40:11.610Z,999.04
2017-04-25T17:41:13.695Z,999.05
2017-04-25T17:42:15.754Z,999.06
2017-04-25T17:43:17.732Z,999.06
2017-04-25T17:44:19.495Z,999.00
2017-04-25T17:45:21.306Z,999.03
2017-04-25T17:46:23.058Z,999.01
2017-04-25T17:47:24.803Z,999.01
2017-04-25T17:48:26.566Z,999.01
2017-04-25T17:49:28.280Z,999.01
2017-04-25T17:50:30.074Z,998.97
2017-04-25T17:51:31.800Z,999.02
2017-04-25T17:52:33.574Z,998.98
2017-04-25T17:53:35.443Z,999.04
2017-04-25T17:54:37.232Z,998.98
2017-04-25T17:55:39.042Z,998.98
2017-04-25T17:56:40.860Z,998.99
2017-04-25T17:57:42.595Z,998.98
2017-04-25T17:58:44.353Z,998.97
2017-04-25T17:59:46.181Z,998.98
2017-04-25T18:00:48.242Z,998.95
2017-04-25T18:01:50.290Z,998.96
2017-04-25T18:02:52.438Z,998.89
2017-04-25T18:03:54.521Z,998.87
2017-04-25T18:04:56.589Z,998.86
2017-04-25T18:05:58.581Z,998.90
2017-04-25T18:07:00.357Z,998.88
2017-04-25T18:08:02.365Z,998.91
2017-04-25T18:09:04.411Z,998.93
2017-04-25T18:10:06.470Z,998.88
2017-04-25T18:11:08.251Z,998.88
2017-04-25T18:12:10.242Z,998.91
2017-04-25T18:13:12.232Z,998.98
2017-04-25T18:14:14.264Z,998.90
2017-04-25T18:15:16.369Z,998.90
2017-04-25T18:16:18.445Z,998.90
2017-04-25T18:17:20.510Z,998.85
2017-04-25T18:18:22.343Z,998.89
2017-04-25T18:19:24.482Z,998.85
2017-04-25T18:20:26.513Z,998.87
2017-04-25T18:21:28.650Z,998.83
2017-04-25T18:22:30.452Z,998.83
2017-04-25T18:23:32.529Z,998.81
2017-04-25T18:24:34.621Z,998.81
2017-04-25T18:25:36.651Z,998.79
2017-04-25T18:26:38.449Z,998.77
2017-04-25T18:27:40.586Z,998.78
2017-04-25T18:28:42.723Z,998.77
2017-04-25T18:29:45.255Z,998.78
2017-04-25T18:30:47.215Z,998.83
2017-04-25T18:31:49.234Z,998.80
2017-04-25T18:32:51.283Z,998.79
2017-04-25T18:33:53.334Z,998.80
2017-04-25T18:34:55.501Z,998.81
2017-04-25T18:35:57.302Z,998.80
2017-04-25T18:36:59.460Z,998.76
2017-04-25T18:38:01.531Z,998.76
2017-04-25T18:39:03.565Z,998.77
2017-04-25T18:40:05.384Z,998.72
2017-04-25T18:41:07.478Z,998.76
2017-04-25T18:42:09.822Z,998.75
2017-04-25T18:43:11.900Z,998.75
2017-04-25T18:44:13.972Z,998.70
2017-04-25T18:45:15.995Z,998.72
2017-04-25T18:46:18.137Z,998.74
2017-04-25T18:47:20.180Z,998.71
2017-04-25T18:48:22.162Z,998.68
2017-04-25T18:49:24.323Z,998.69
2017-04-25T18:50:26.834Z,998.66
2017-04-25T18:51:28.924Z,998.66
2017-04-25T18:52:31.043Z,998.61
2017-04-25T18:53:33.086Z,998.65
2017-04-25T18:54:35.161Z,998.61
2017-04-25T18:55:37.122Z,998.63
2017-04-25T18:56:39.203Z,998.60
2017-04-25T18:57:41.290Z,998.59
2017-04-25T18:58:43.262Z,998.59
2017-04-25T18:59:45.303Z,998.58
2017-04-25T19:01:37.934Z,998.57
2017-04-25T19:02:39.724Z,998.47
2017-04-25T19:49:47.869Z,998.41
2017-04-25T19:50:49.810Z,998.37
